createdAt,value
2022-11-03T00:00:32.339Z,1.30
2022-11-03T00:03:14.998Z,1.23
2022-11-03T00:06:06.779Z,1.20
2022-11-03T00:08:49.441Z,1.48
2022-11-03T00:11:34.791Z,1.42
2022-11-03T00:14:17.497Z,1.38
2022-11-03T00:17:00.188Z,1.13
2022-11-03T00:19:42.854Z,1.17
2022-11-03T00:22:25.677Z,1.00
2022-11-03T00:25:09.003Z,1.23
2022-11-03T00:27:59.396Z,1.20
2022-11-03T00:30:42.117Z,1.20
2022-11-03T00:33:27.798Z,1.25
2022-11-03T00:36:12.773Z,1.30
2022-11-03T00:38:55.987Z,1.20
2022-11-03T00:41:38.957Z,1.45
2022-11-03T00:44:23.074Z,0.90
2022-11-03T00:47:05.882Z,1.20
2022-11-03T00:49:48.505Z,1.08
2022-11-03T00:52:31.165Z,1.30
2022-11-03T00:55:13.893Z,1.10
2022-11-03T00:57:56.675Z,1.30
2022-11-03T01:00:40.824Z,1.10
2022-11-03T01:03:23.600Z,1.33
2022-11-03T01:06:24.962Z,1.75
2022-11-03T01:09:07.675Z,1.35
2022-11-03T01:11:54.198Z,1.50
2022-11-03T01:14:37.865Z,1.30
2022-11-03T01:17:22.866Z,1.20
2022-11-03T01:20:05.951Z,1.30
2022-11-03T01:22:48.644Z,1.02
2022-11-03T01:25:31.536Z,1.20
2022-11-03T01:28:14.287Z,1.48
2022-11-03T01:30:56.999Z,1.10
2022-11-03T01:33:41.571Z,1.00
2022-11-03T01:36:24.691Z,1.33
2022-11-03T01:39:07.532Z,1.00
2022-11-03T01:41:52.163Z,1.20
2022-11-03T01:44:35.999Z,1.17
2022-11-03T01:47:23.927Z,1.30
2022-11-03T01:50:09.854Z,1.10
2022-11-03T01:52:54.480Z,1.00
2022-11-03T01:55:40.073Z,1.10
2022-11-03T01:58:24.315Z,1.40
2022-11-03T02:01:07.603Z,1.00
2022-11-03T02:03:52.612Z,1.33
2022-11-03T02:06:37.111Z,1.35
2022-11-03T02:09:20.688Z,1.25
2022-11-03T02:12:12.212Z,1.10
2022-11-03T02:14:56.802Z,1.05
2022-11-03T02:17:40.833Z,1.10
2022-11-03T02:20:25.198Z,1.13
2022-11-03T02:23:21.425Z,0.90
2022-11-03T02:26:07.633Z,1.10
2022-11-03T02:28:50.358Z,1.08
2022-11-03T02:31:36.655Z,1.25
2022-11-03T02:34:22.869Z,1.20
2022-11-03T02:37:07.464Z,0.88
2022-11-03T02:39:52.942Z,1.00
2022-11-03T02:42:37.689Z,0.90
2022-11-03T02:45:22.419Z,1.20
2022-11-03T02:48:05.729Z,1.00
2022-11-03T02:50:49.115Z,1.27
2022-11-03T02:53:32.090Z,1.00
2022-11-03T02:56:18.195Z,1.00
2022-11-03T02:59:03.572Z,1.10
2022-11-03T03:01:48.758Z,1.02
2022-11-03T03:04:35.699Z,1.00
2022-11-03T03:07:21.676Z,0.68
2022-11-03T03:10:07.531Z,0.90
2022-11-03T03:12:51.962Z,0.95
2022-11-03T03:15:46.246Z,1.10
2022-11-03T03:18:32.089Z,0.85
2022-11-03T03:21:17.564Z,1.10
2022-11-03T03:24:03.451Z,1.10
2022-11-03T03:26:49.544Z,0.85
2022-11-03T03:29:36.049Z,1.17
2022-11-03T03:32:21.750Z,0.93
2022-11-03T03:35:07.824Z,1.02
2022-11-03T03:37:52.329Z,0.98
2022-11-03T03:40:36.629Z,1.05
2022-11-03T03:43:20.912Z,0.82
2022-11-03T03:46:06.203Z,0.90
2022-11-03T03:48:50.453Z,0.90
2022-11-03T03:51:33.677Z,0.75
2022-11-03T03:54:16.461Z,1.00
2022-11-03T03:57:01.621Z,1.15
2022-11-03T03:59:44.399Z,0.95
2022-11-03T04:02:27.182Z,1.08
2022-11-03T04:05:11.543Z,0.85
2022-11-03T04:07:54.326Z,0.93
2022-11-03T04:10:37.138Z,0.90
2022-11-03T04:13:37.199Z,0.90
2022-11-03T04:16:37.387Z,0.80
2022-11-03T04:19:37.702Z,1.08
2022-11-03T04:22:22.367Z,1.10
2022-11-03T04:25:05.282Z,0.90
2022-11-03T04:27:47.963Z,1.38
2022-11-03T04:30:30.651Z,1.15
2022-11-03T04:33:14.881Z,1.20
2022-11-03T04:35:59.130Z,1.30
2022-11-03T04:38:44.078Z,0.80
2022-11-03T04:41:29.905Z,1.25
2022-11-03T04:44:15.140Z,1.10
2022-11-03T04:46:57.954Z,0.80
2022-11-03T04:49:40.688Z,1.27
2022-11-03T04:52:23.612Z,0.70
2022-11-03T04:55:11.542Z,0.85
2022-11-03T04:57:57.013Z,1.00
2022-11-03T05:00:40.384Z,1.08
2022-11-03T05:03:24.237Z,0.90
2022-11-03T05:06:11.283Z,0.82
2022-11-03T05:08:55.757Z,1.05
2022-11-03T05:11:40.957Z,1.15
2022-11-03T05:14:25.574Z,0.93
2022-11-03T05:17:16.549Z,1.00
2022-11-03T05:20:01.167Z,1.15
2022-11-03T05:22:43.880Z,1.15
2022-11-03T05:25:38.397Z,1.42
2022-11-03T05:28:23.712Z,0.90
2022-11-03T05:31:15.606Z,1.13
2022-11-03T05:33:59.051Z,0.95
2022-11-03T05:36:41.709Z,1.17
2022-11-03T05:39:28.062Z,1.15
2022-11-03T05:42:21.681Z,1.08
2022-11-03T05:45:09.301Z,1.00
2022-11-03T05:47:54.758Z,1.25
2022-11-03T05:50:37.627Z,0.90
2022-11-03T05:53:32.423Z,1.00
2022-11-03T05:56:18.069Z,0.98
2022-11-03T05:59:01.209Z,1.10
2022-11-03T06:01:45.437Z,1.35
2022-11-03T06:04:30.121Z,0.93
2022-11-03T06:07:16.548Z,1.08
2022-11-03T06:09:59.471Z,0.90
2022-11-03T06:12:42.140Z,0.80
2022-11-03T06:15:28.738Z,1.05
2022-11-03T06:18:17.284Z,1.00
2022-11-03T06:21:03.587Z,0.90
2022-11-03T06:23:46.402Z,1.35
2022-11-03T06:26:29.419Z,1.10
2022-11-03T06:29:14.535Z,1.17
2022-11-03T06:31:58.022Z,0.88
2022-11-03T06:34:44.366Z,1.27
2022-11-03T06:37:28.875Z,1.30
2022-11-03T06:40:30.419Z,1.10
2022-11-03T06:43:16.431Z,1.00
2022-11-03T06:46:00.181Z,1.20
2022-11-03T06:48:42.887Z,1.00
2022-11-03T06:51:27.859Z,1.08
2022-11-03T06:54:11.009Z,1.15
2022-11-03T06:56:53.687Z,0.90
2022-11-03T06:59:36.504Z,0.90
2022-11-03T07:02:32.500Z,0.95
2022-11-03T07:05:19.652Z,1.00
2022-11-03T07:08:05.117Z,1.20
2022-11-03T07:10:49.012Z,0.80
2022-11-03T07:13:33.546Z,1.00
2022-11-03T07:16:19.501Z,0.75
2022-11-03T07:19:02.555Z,1.00
2022-11-03T07:21:46.667Z,1.05
2022-11-03T07:24:31.534Z,0.95
2022-11-03T07:27:16.015Z,0.90
2022-11-03T07:29:59.834Z,1.20
2022-11-03T07:32:42.655Z,1.00
2022-11-03T07:35:27.512Z,1.02
2022-11-03T07:38:12.699Z,1.00
2022-11-03T07:40:58.262Z,1.40
2022-11-03T07:43:41.286Z,1.10
2022-11-03T07:46:24.827Z,1.10
2022-11-03T07:49:15.713Z,1.10
2022-11-03T07:51:59.696Z,0.80
2022-11-03T07:54:42.413Z,0.90
2022-11-03T07:57:28.368Z,0.98
2022-11-03T08:00:13.532Z,0.93
2022-11-03T08:02:58.476Z,0.93
2022-11-03T08:05:41.378Z,1.02
2022-11-03T08:08:24.133Z,1.00
2022-11-03T08:11:07.232Z,0.98
2022-11-03T08:13:51.714Z,1.00
2022-11-03T08:16:34.629Z,1.17
2022-11-03T08:19:17.575Z,1.10
2022-11-03T08:22:00.427Z,1.10
2022-11-03T08:24:43.176Z,1.10
2022-11-03T08:27:27.642Z,1.08
2022-11-03T08:30:12.502Z,1.00
2022-11-03T08:32:55.418Z,1.30
2022-11-03T08:35:38.236Z,1.00
2022-11-03T08:38:20.990Z,1.10
2022-11-03T08:41:04.096Z,0.80
2022-11-03T08:43:46.905Z,0.95
2022-11-03T08:46:31.147Z,1.08
2022-11-03T08:49:13.966Z,1.10
2022-11-03T08:51:56.884Z,1.13
2022-11-03T08:54:39.843Z,1.52
2022-11-03T08:57:22.736Z,1.00
2022-11-03T09:00:05.951Z,0.90
2022-11-03T09:02:50.523Z,1.20
2022-11-03T09:05:33.368Z,1.15
2022-11-03T09:11:18.870Z,1.20
2022-11-03T09:14:01.561Z,1.08
2022-11-03T09:16:44.371Z,1.20
2022-11-03T09:19:28.494Z,0.82
2022-11-03T09:22:11.221Z,1.17
2022-11-03T09:24:54.141Z,1.10
2022-11-03T09:27:36.936Z,1.10
2022-11-03T09:30:19.763Z,1.15
2022-11-03T09:33:02.603Z,1.10
2022-11-03T09:35:47.054Z,0.90
2022-11-03T09:38:29.954Z,1.15
2022-11-03T09:41:26.176Z,1.50
2022-11-03T09:44:12.572Z,0.90
2022-11-03T09:46:58.487Z,1.20
2022-11-03T09:49:41.482Z,1.10
2022-11-03T09:52:25.832Z,1.17
2022-11-03T09:55:14.082Z,0.90
2022-11-03T09:57:58.740Z,1.20
2022-11-03T10:00:41.790Z,0.80
2022-11-03T10:03:24.691Z,1.10
2022-11-03T10:06:10.999Z,1.05
2022-11-03T10:08:58.928Z,1.15
2022-11-03T10:11:41.831Z,0.90
2022-11-03T10:14:24.899Z,1.15
2022-11-03T10:17:07.785Z,1.17
2022-11-03T10:19:52.739Z,1.20
2022-11-03T10:22:40.773Z,1.00
2022-11-03T10:25:41.718Z,1.15
2022-11-03T10:28:26.903Z,1.00
2022-11-03T10:31:19.512Z,1.00
2022-11-03T10:34:02.359Z,1.02
2022-11-03T10:36:49.568Z,1.00
2022-11-03T10:39:33.413Z,1.15
2022-11-03T10:42:20.679Z,0.88
2022-11-03T10:45:17.741Z,1.02
2022-11-03T10:48:01.622Z,1.20
2022-11-03T10:50:44.554Z,1.02
2022-11-03T10:53:27.463Z,1.00
2022-11-03T10:56:10.329Z,1.38
2022-11-03T10:58:53.627Z,1.10
2022-11-03T11:01:38.093Z,1.20
2022-11-03T11:04:21.918Z,1.17
2022-11-03T11:07:04.821Z,1.17
2022-11-03T11:09:48.074Z,1.10
2022-11-03T11:12:31.481Z,1.30
2022-11-03T11:15:29.096Z,1.08
2022-11-03T11:18:33.258Z,1.10
2022-11-03T11:21:33.363Z,1.13
2022-11-03T11:24:51.881Z,1.10
2022-11-03T11:28:07.617Z,1.10
2022-11-03T11:31:22.580Z,1.02
2022-11-03T11:34:43.184Z,0.80
2022-11-03T11:37:36.750Z,1.35
2022-11-03T11:40:47.342Z,1.25
2022-11-03T11:43:30.132Z,1.10
2022-11-03T11:46:31.402Z,0.90
2022-11-03T11:49:18.337Z,0.70
2022-11-03T11:52:03.262Z,1.20
2022-11-03T11:54:46.029Z,0.85
2022-11-03T11:57:31.376Z,0.90
2022-11-03T12:00:22.329Z,1.10
2022-11-03T12:03:07.009Z,0.90
2022-11-03T12:05:50.893Z,0.80
2022-11-03T12:08:35.469Z,1.02
2022-11-03T12:11:38.203Z,0.90
2022-11-03T12:14:25.012Z,1.13
2022-11-03T12:17:26.467Z,1.30
2022-11-03T12:20:33.498Z,1.00
2022-11-03T12:23:31.120Z,1.00
2022-11-03T12:26:17.413Z,1.00
2022-11-03T12:29:00.163Z,1.08
2022-11-03T12:31:43.060Z,0.90
2022-11-03T12:34:25.783Z,1.15
2022-11-03T12:37:08.707Z,1.30
2022-11-03T12:39:51.598Z,1.05
2022-11-03T12:42:36.067Z,0.70
2022-11-03T12:45:18.911Z,0.82
2022-11-03T12:48:01.689Z,1.25
2022-11-03T12:50:44.513Z,0.90
2022-11-03T12:53:27.322Z,0.85
2022-11-03T12:56:10.574Z,0.90
2022-11-03T12:58:54.808Z,1.02
2022-11-03T13:01:38.024Z,1.20
2022-11-03T13:04:21.145Z,0.77
2022-11-03T13:07:03.999Z,1.00
2022-11-03T13:09:46.887Z,1.20
2022-11-03T13:12:32.465Z,0.98
2022-11-03T13:15:16.932Z,0.70
2022-11-03T13:18:12.762Z,1.00
2022-11-03T13:20:56.720Z,0.82
2022-11-03T13:23:39.505Z,0.93
2022-11-03T13:26:22.362Z,1.25
2022-11-03T13:29:05.135Z,0.80
2022-11-03T13:31:49.318Z,0.88
2022-11-03T13:34:32.516Z,0.90
2022-11-03T13:37:15.248Z,1.00
2022-11-03T13:39:58.094Z,1.05
2022-11-03T13:42:40.951Z,0.98
2022-11-03T13:45:24.188Z,0.98
2022-11-03T13:51:12.311Z,1.10
2022-11-03T14:00:04.638Z,0.85
2022-11-03T14:05:59.219Z,0.90
2022-11-03T14:08:42.138Z,1.30
2022-11-03T14:11:42.615Z,1.15
2022-11-03T14:14:25.491Z,1.30
2022-11-03T14:17:08.462Z,0.93
2022-11-03T14:19:53.104Z,1.20
2022-11-03T14:22:38.136Z,1.23
2022-11-03T14:25:20.901Z,1.02
2022-11-03T14:28:03.774Z,1.13
2022-11-03T14:30:46.900Z,0.98
2022-11-03T14:33:29.933Z,1.30
2022-11-03T14:36:13.032Z,1.23
2022-11-03T14:38:57.382Z,1.20
2022-11-03T14:41:57.611Z,0.90
2022-11-03T14:44:40.888Z,1.23
2022-11-03T14:47:23.659Z,1.00
2022-11-03T14:50:07.384Z,1.00
2022-11-03T14:52:50.098Z,1.20
2022-11-03T14:55:34.146Z,1.23
2022-11-03T14:58:16.927Z,1.20
2022-11-03T15:00:59.758Z,1.00
2022-11-03T15:03:42.732Z,1.02
2022-11-03T15:06:25.513Z,1.10
2022-11-03T15:11:57.562Z,1.40
2022-11-03T15:14:40.318Z,1.02
2022-11-03T15:17:23.180Z,1.05
2022-11-03T15:20:06.674Z,1.13
2022-11-03T15:25:52.270Z,1.40
2022-11-03T15:28:36.722Z,1.23
2022-11-03T15:31:19.642Z,1.27
2022-11-03T15:34:05.964Z,1.25
2022-11-03T15:36:51.639Z,1.17
2022-11-03T15:39:34.556Z,1.02
2022-11-03T15:42:17.465Z,1.30
2022-11-03T15:45:01.713Z,0.98
2022-11-03T15:47:44.643Z,1.10
2022-11-03T15:50:27.691Z,1.20
2022-11-03T15:53:10.684Z,1.10
2022-11-03T15:55:53.606Z,1.27
2022-11-03T15:58:37.675Z,0.98
2022-11-03T16:01:22.312Z,1.17
2022-11-03T16:04:05.424Z,1.23
2022-11-03T16:09:51.242Z,0.90
2022-11-03T16:12:34.041Z,1.30
2022-11-03T16:15:16.870Z,1.10
2022-11-03T16:18:02.850Z,1.17
2022-11-03T16:20:45.695Z,1.35
2022-11-03T16:23:28.489Z,1.10
2022-11-03T16:26:11.301Z,1.42
2022-11-03T16:28:54.035Z,1.30
2022-11-03T16:31:36.998Z,0.88
2022-11-03T16:34:21.106Z,1.20
2022-11-03T16:37:03.881Z,1.05
2022-11-03T16:39:46.635Z,1.20
2022-11-03T16:42:29.433Z,1.50
2022-11-03T16:45:15.883Z,1.40
2022-11-03T16:47:58.773Z,1.58
2022-11-03T16:50:44.702Z,1.20
2022-11-03T16:53:27.861Z,1.23
2022-11-03T16:56:10.686Z,1.38
2022-11-03T16:58:53.806Z,1.23
2022-11-03T17:01:36.642Z,1.13
2022-11-03T17:04:19.556Z,1.30
2022-11-03T17:07:03.661Z,1.13
2022-11-03T17:09:46.487Z,1.40
2022-11-03T17:12:29.321Z,1.40
2022-11-03T17:15:12.223Z,1.35
2022-11-03T17:17:55.028Z,1.33
2022-11-03T17:20:37.746Z,1.30
2022-11-03T17:23:21.899Z,1.52
2022-11-03T17:26:05.248Z,1.45
2022-11-03T17:28:48.052Z,1.35
2022-11-03T17:31:30.768Z,1.33
2022-11-03T17:34:13.746Z,1.40
2022-11-03T17:36:56.793Z,1.60
2022-11-03T17:39:41.480Z,1.33
2022-11-03T17:42:25.933Z,1.50
2022-11-03T17:45:12.640Z,1.35
2022-11-03T17:47:55.439Z,1.42
2022-11-03T17:50:38.358Z,1.75
2022-11-03T17:53:23.128Z,1.50
2022-11-03T17:56:28.882Z,1.60
2022-11-03T17:59:14.683Z,1.40
2022-11-03T18:01:57.864Z,1.52
2022-11-03T18:04:40.829Z,1.23
2022-11-03T18:07:26.494Z,1.40
2022-11-03T18:10:09.926Z,1.50
2022-11-03T18:13:14.240Z,1.55
2022-11-03T18:15:59.124Z,1.38
2022-11-03T18:18:42.947Z,1.55
2022-11-03T18:21:25.769Z,1.73
2022-11-03T18:24:11.038Z,1.42
2022-11-03T18:26:54.065Z,2.05
2022-11-03T18:29:38.320Z,1.67
2022-11-03T18:32:21.277Z,1.60
2022-11-03T18:35:04.281Z,1.55
2022-11-03T18:37:49.577Z,1.33
2022-11-03T18:40:33.984Z,1.80
2022-11-03T18:43:18.439Z,1.50
2022-11-03T18:46:02.686Z,1.65
2022-11-03T18:48:45.612Z,1.40
2022-11-03T18:51:28.526Z,1.63
2022-11-03T18:54:13.732Z,1.40
2022-11-03T18:56:57.247Z,1.67
2022-11-03T18:59:41.691Z,1.23
2022-11-03T19:02:26.540Z,1.55
2022-11-03T19:05:13.487Z,1.70
2022-11-03T19:07:56.813Z,1.48
2022-11-03T19:10:40.955Z,1.33
2022-11-03T19:13:28.607Z,1.35
2022-11-03T19:16:15.677Z,1.35
2022-11-03T19:18:59.964Z,1.50
2022-11-03T19:21:42.930Z,1.35
2022-11-03T19:24:26.054Z,1.63
2022-11-03T19:27:11.745Z,1.55
2022-11-03T19:29:55.782Z,1.40
2022-11-03T19:32:41.365Z,1.52
2022-11-03T19:35:29.973Z,1.30
2022-11-03T19:38:14.364Z,1.35
2022-11-03T19:41:29.183Z,1.20
2022-11-03T19:44:13.194Z,1.27
2022-11-03T19:46:56.671Z,1.23
2022-11-03T19:49:39.503Z,1.27
2022-11-03T19:52:26.093Z,1.60
2022-11-03T19:55:11.482Z,1.27
2022-11-03T19:57:54.399Z,1.63
2022-11-03T20:00:37.241Z,1.63
2022-11-03T20:03:20.059Z,1.30
2022-11-03T20:06:03.211Z,1.63
2022-11-03T20:08:48.962Z,1.38
2022-11-03T20:11:31.832Z,1.38
2022-11-03T20:14:17.417Z,1.17
2022-11-03T20:17:01.001Z,1.35
2022-11-03T20:19:43.878Z,1.30
2022-11-03T20:22:29.188Z,1.58
2022-11-03T20:25:18.267Z,1.33
2022-11-03T20:28:01.288Z,1.42
2022-11-03T20:30:44.104Z,1.52
2022-11-03T20:33:27.014Z,1.75
2022-11-03T20:36:14.491Z,1.60
2022-11-03T20:38:59.646Z,1.33
2022-11-03T20:41:46.578Z,1.40
2022-11-03T20:44:29.560Z,1.17
2022-11-03T20:47:13.432Z,1.30
2022-11-03T20:49:56.419Z,1.55
2022-11-03T20:52:40.078Z,1.55
2022-11-03T20:55:24.249Z,1.63
2022-11-03T20:58:10.910Z,1.90
2022-11-03T21:00:53.785Z,1.70
2022-11-03T21:03:58.270Z,1.83
2022-11-03T21:06:40.976Z,1.60
2022-11-03T21:09:23.920Z,1.42
2022-11-03T21:12:07.287Z,1.88
2022-11-03T21:15:09.079Z,1.70
2022-11-03T21:18:09.724Z,1.65
2022-11-03T21:20:52.572Z,1.60
2022-11-03T21:23:35.529Z,1.70
2022-11-03T21:26:18.238Z,1.60
2022-11-03T21:29:01.010Z,1.60
2022-11-03T21:31:45.167Z,2.00
2022-11-03T21:34:28.786Z,1.58
2022-11-03T21:37:13.600Z,1.48
2022-11-03T21:39:56.458Z,1.30
2022-11-03T21:42:56.622Z,1.48
2022-11-03T21:45:39.435Z,1.58
2022-11-03T21:48:41.109Z,1.63
2022-11-03T21:51:24.287Z,1.30
2022-11-03T21:54:07.052Z,1.90
2022-11-03T21:56:49.880Z,1.58
2022-11-03T21:59:32.657Z,1.65
2022-11-03T22:02:15.472Z,1.80
2022-11-03T22:04:59.720Z,1.63
2022-11-03T22:07:42.502Z,1.85
2022-11-03T22:10:25.301Z,2.03
2022-11-03T22:13:08.310Z,1.60
2022-11-03T22:16:08.712Z,1.90
2022-11-03T22:18:51.360Z,1.92
2022-11-03T22:21:52.946Z,1.75
2022-11-03T22:24:53.092Z,1.40
2022-11-03T22:27:36.262Z,1.63
2022-11-03T22:30:36.753Z,1.60
2022-11-03T22:33:19.469Z,2.28
2022-11-03T22:36:21.911Z,1.73
2022-11-03T22:39:38.272Z,1.70
2022-11-03T22:42:38.639Z,1.88
2022-11-03T22:45:38.955Z,1.58
2022-11-03T22:48:22.350Z,1.65
2022-11-03T22:51:06.413Z,2.00
2022-11-03T22:54:06.829Z,1.75
2022-11-03T22:56:50.874Z,1.40
2022-11-03T22:59:33.717Z,1.73
2022-11-03T23:02:16.604Z,1.80
2022-11-03T23:04:59.439Z,1.80
2022-11-03T23:07:42.279Z,2.08
2022-11-03T23:10:28.491Z,1.90
2022-11-03T23:13:12.646Z,2.00
2022-11-03T23:15:55.721Z,1.70
2022-11-03T23:18:56.254Z,1.50
2022-11-03T23:21:39.270Z,1.58
2022-11-03T23:24:43.988Z,1.90
2022-11-03T23:27:28.599Z,1.88
2022-11-03T23:30:13.631Z,1.80
2022-11-03T23:32:56.560Z,1.92
2022-11-03T23:35:40.361Z,1.75
2022-11-03T23:38:23.243Z,1.67
2022-11-03T23:41:06.953Z,1.67
2022-11-03T23:43:49.875Z,1.73
2022-11-03T23:46:51.663Z,2.17
2022-11-03T23:49:34.457Z,1.70
2022-11-03T23:52:17.117Z,1.50
2022-11-03T23:54:59.891Z,1.92
2022-11-03T23:58:00.155Z,1.77
